Airfield :
LOGIN :

Register | Disclaimer

   EN    FR    IT 

 










Legend :    VFR   Marginal VFR   IFR   Intensive IFR   Very Intensive IFR
Visi :
Ceiling :
>= 8 km
>= 3000ft
5 to 8 km
1000 to 3000 ft
1500m to 5 km
500 to 1000 ft
800 to 1500m
200 to 500 ft
< 800m
< 200 ft
Symbols :   Thunderstorms  Fog  Heavy snow  Heavy precipitations  Wind > 20 kt
SIGMETs :     Misc.  Thunderstorms  Icing  Turbulence  Mountain Waves  Volcanic Ashes






- Airport Elevation : 65 ft
- IATA code : PIK


EGPK - Glasgow Prestwick

CURRENT METAR :
  • 311820Z 24006KT 220V300 9999 FEW026 16/11 Q1008

EXPIRED METARs :
  • 311750Z 24007KT 200V300 9999 FEW028 17/11 Q1008
  • 311720Z 28008KT 240V300 9999 SCT028 17/11 Q1008
  • 311650Z 28008KT 9999 SCT030 17/10 Q1008
  • 311620Z 29009KT 9999 SCT031 17/10 Q1008

TAF TAF EGPK
Valid from the 31 at 18:00 until the 01 at 18:00 UTC


311703Z 3118/0118 29010KT 9999 BKN030
BECMG 3121/3124 06006KT
PROB30
TEMPO 3121/0108 BKN012
BECMG 0112/0115 28010KT



MET'MAP, your aeronautical weather chart ! - Copyright ORBIFLY December 2007 - Disclaimer

ORBIFLY MET'MAP TEAM :

Programming & Development : Alexandra Zaïnal
Concept & original design : Baudouin d'Aumeries
Assistance for programming : Marc-Olivier Méhu
Technical & hardware support : Manuel Goepfert

Contact : metmap@orbifly.com




SOURCES & CREDITS :

   NOAA